Assonet, MA

7:46 PM EDT on March 26, 2015 (GMT -0400)
Proprietors Acres | | Change Station
CLOSE
Current Station
Personal Weather Station
Location: East Freetown, MA
Elevation: 165 ft
Nearby Weather Stations
Active Advisory: Dense Fog Advisory

Elev 165 ft 41.75 °N, 71.01 °W | Updated 13 minutes ago

Rain
Rain
51.3 °F
Feels Like 51.3 °F
N
5.3
Wind Variable Wind from SW

Today
High -- | Low -- °F
--% Chance of Precip.
Yesterday
High -- | Low -- °F
Precip. -- in
6:37 AM 7:02 PM
Waxing Crescent, 47% visible
Pressure 29.66 in
Visibility 9.0 miles
Clouds Mostly Cloudy 600 ft
Overcast 1200 ft
Dew Point 49 °F
Humidity 93%
Rainfall 0.58 in
Snow Depth Not available.
UV 0 out of 12
Pollen .90 out of 12
Air Quality Not available.
Flu Activity Not available.
SPECI KTAN 262306Z AUTO 21010G16KT 9SM -RA BKN006 OVC012 12/11 A2966 RMK AO2 P0001 T01170106

More Conditions Fewer Conditions

Pressure 29.66 in
Visibility 9.0 miles
Clouds Mostly Cloudy 600 ft
Overcast 1200 ft
Dew Point 49 °F
Humidity 93%
Rainfall 0.58 in
Snow Depth Not available.
UV 0 out of 12
Pollen .90 out of 12
Air Quality Not available.
Flu Activity Not available.
SPECI KTAN 262306Z AUTO 21010G16KT 9SM -RA BKN006 OVC012 12/11 A2966 RMK AO2 P0001 T01170106

More Conditions Fewer Conditions

10-Day Weather Forecast

Almanac

Astronomy

Mar. 26, 2015 Rise Set
Actual Time
Civil Twilight
Nautical Twilight
Astronomical Twilight
Moon
Length of Visible Light
Length of Day
Tomorrow will be .
, % of the Moon is Illuminated

Today's Extremes

State Highs State Lows

Community

WunderPhotos

Upload Photos

1,808,643 photos uploaded!

WunderBlogs® & News

Nearby

Air Quality

  Air Quality AQ Index Pollutant
Not available.

Snow Depth

Station Depth Elevation

Earthquake Activity

City Distance Mag. Time & Date
Minimum magnitude displayed is 2.5.

Coastal Water Temperatures

Place Temperature

Stations

Nearby Weather Stations

Station Location Temp. Windchill Dew Point Humidity Wind Precip. Elev Updated Type
                   
Dense Fog Advisory
Statement as of 3:10 PM EDT on March 26, 2015

... Dense fog advisory in effect until midnight EDT tonight...

The National Weather Service in Taunton has issued a dense fog
advisory... which is in effect until midnight EDT tonight.

* Locations... the South Coast including Cape Cod and the islands.

* Visibilities... one quarter of a mile or less at times.

* Timing... through midnight.

* Impacts... hazardous driving conditions with dense fog resulting
in poor visibility at times. Motorists are advised to slow down
as objects on and near roadways will be see only at close range.

Precautionary/preparedness actions...

A dense fog advisory is issued when dense fog will reduce
visibilities to one quarter mile or less for at least 3 hours...
resulting in hazardous driving conditions. Motorists are advised
to slow down as objects on and near roadways will be seen only at
close range.